New Century 1 — H9LA — position and weather

sailwx.info

Track history (hours):
 
Tides and Currents Weather Stations Pressure Air Temp Water Temp Dewpoint Dewpoint Depression Visibility Wind Speed Wind Dir Waves Ship Positions

New Century 1

Last reported at 2015-Mar-01 16:27 UTC. Time now 2015-Mar-03 00:38 UTC.
Position N 37°27' W 125°32'.

Length 200 m; beam 32.3 m.

Type: Cargo ship. MMSI: 355234000.

Date/timePositionNaut miles runAvg speedWind from/ knotsBaromVisibWave heightAir tempDewpointWater temp
2015-Mar-01 16:27N 37°27' W 125°32'4515.3
2015-Mar-01 13:32N 37°27' W 124°35'3115.5
2015-Mar-01 11:33N 37°27' W 123°57'2215.3
2015-Mar-01 10:05N 37°27' W 123°28'815.7
2015-Mar-01 09:33N 37°30' W 123°18'1515.4
2015-Mar-01 08:33N 37°36' W 123°00'1413.8
2015-Mar-01 07:33N 37°43' W 122°46'1313.2
2015-Mar-01 06:34N 37°49' W 122°31'1212.2
2015-Mar-01 05:33N 37°60' W 122°25'1010.5
2015-Mar-01 04:33N 38°04' W 122°13'4 0.4
2015-Feb-28 18:23N 38°02' W 122°08'0 0.0
2015-Feb-28 11:29N 38°02' W 122°08'0 0.0
2015-Feb-28 10:23N 38°02' W 122°08'0 0.0
2015-Feb-28 09:11N 38°02' W 122°08'0 0.0
2015-Feb-28 03:05N 38°02' W 122°08'0 0.1
2015-Feb-28 02:33N 38°02' W 122°08'10 9.9
2015-Feb-28 01:33N 38°03' W 122°21'1111.1
2015-Feb-28 00:33N 37°52' W 122°25'1414.0
2015-Feb-27 23:33N 37°44' W 122°40'1010.1
2015-Feb-27 22:33N 37°38' W 122°50'1110.6
2015-Feb-27 21:33N 37°33' W 123°02'1111.0
2015-Feb-27 20:33N 37°30' W 123°15'5 4.7
2015-Feb-27 19:30N 37°32' W 123°21'2 2.3
2015-Feb-27 18:33N 37°34' W 123°22'2 2.1
2015-Feb-27 17:33N 37°36' W 123°23'2 2.0
2015-Feb-27 16:27N 37°38' W 123°24'2 1.9
2015-Feb-27 15:33N 37°39' W 123°25'2 1.7
2015-Feb-27 14:33N 37°41' W 123°26'2 1.8
2015-Feb-27 13:33N 37°43' W 123°26'2 2.2
2015-Feb-27 12:33N 37°45' W 123°26'2 2.2
2015-Feb-27 11:33N 37°43' W 123°25'8 7.8
2015-Feb-27 10:30N 37°36' W 123°19'910.0
2015-Feb-27 09:33N 37°28' W 123°12'9 8.8
2015-Feb-27 08:33N 37°21' W 123°06'6 5.9
2015-Feb-27 07:30N 37°16' W 123°01'23 6.8
2015-Feb-27 04:09N 36°57' W 122°45'812.3
2015-Feb-27 03:29N 36°50' W 122°40'1312.2
2015-Feb-27 02:27N 36°38' W 122°36'1112.7
2015-Feb-27 01:33N 36°27' W 122°32'1312.7
2015-Feb-27 00:33N 36°14' W 122°28'1313.1
2015-Feb-26 23:34N 36°02' W 122°24'1313.2
2015-Feb-26 22:33N 35°49' W 122°20'1413.6
2015-Feb-26 21:33N 35°37' W 122°12'1413.7
2015-Feb-26 20:33N 35°26' W 122°02'1413.7
2015-Feb-26 19:31N 35°15' W 121°52'1714.7
2015-Feb-26 18:23N 35°02' W 121°39'1315.3
2015-Feb-26 17:33N 34°52' W 121°29'1615.3
2015-Feb-26 16:31N 34°39' W 121°17'1515.1
2015-Feb-26 15:33N 34°29' W 121°05'1816.0
2015-Feb-26 14:25N 34°24' W 120°43'1616.2
2015-Feb-26 13:28N 34°20' W 120°25'1916.7
2015-Feb-26 12:19N 34°15' W 120°03'1317.2
2015-Feb-26 11:33N 34°12' W 119°48'1717.2
2015-Feb-26 10:33N 34°07' W 119°28'1817.5
2015-Feb-26 09:33N 34°01' W 119°08'1111.5
2015-Feb-26 08:33N 33°55' W 118°56'10 9.7
2015-Feb-26 07:33N 33°50' W 118°46'10 9.7
2015-Feb-26 06:33N 33°45' W 118°36'1010.2
2015-Feb-26 05:33N 33°40' W 118°25'10 9.6
2015-Feb-26 04:33N 33°39' W 118°14'7 6.7
2015-Feb-26 03:33N 33°45' W 118°13'1 1.0
2015-Feb-26 02:32N 33°46' W 118°13'0 0.0
2015-Feb-26 01:32N 33°46' W 118°13'0 0.0
2015-Feb-26 00:32N 33°46' W 118°13'0 0.0
2015-Feb-25 23:32N 33°46' W 118°13'0 0.0
2015-Feb-25 22:32N 33°46' W 118°13'0 0.0
2015-Feb-25 21:32N 33°46' W 118°13'0 0.0
2015-Feb-25 20:32N 33°46' W 118°13'0 0.0
2015-Feb-25 19:29N 33°46' W 118°13'0 0.0
2015-Feb-25 18:32N 33°46' W 118°13'0 0.0
2015-Feb-25 17:32N 33°46' W 118°13'0 0.0
2015-Feb-25 16:26N 33°46' W 118°13'0 0.0
2015-Feb-25 15:32N 33°46' W 118°13'0 0.2
2015-Feb-25 14:33N 33°46' W 118°13'6 5.5
2015-Feb-25 13:30N 33°41' W 118°11'5 5.0
2015-Feb-25 12:33N 33°36' W 118°10'7 6.6
2015-Feb-25 11:33N 33°30' W 118°07'6 6.4
2015-Feb-25 10:33N 33°24' W 118°05'7 6.9
2015-Feb-25 09:33N 33°17' W 118°02'7 7.3
2015-Feb-25 08:33N 33°10' W 118°00'7 7.0
2015-Feb-25 07:33N 33°03' W 118°00'1010.2
2015-Feb-25 06:33N 32°53' W 118°00'1615.6
2015-Feb-25 05:33N 32°38' W 118°03'1716.7
2015-Feb-25 04:33N 32°30' W 118°21'1716.7
2015-Feb-25 03:33N 32°24' W 118°39'1716.9
2015-Feb-25 02:33N 32°18' W 118°57'1716.6
2015-Feb-25 01:33N 32°13' W 119°16'5116.7
2015-Feb-24 22:29N 32°03' W 120°16'  
Track history (hours):
 
Tides and Currents Weather Stations Pressure Air Temp Water Temp Dewpoint Dewpoint Depression Visibility Wind Speed Wind Dir Waves Ship Positions

New Century 1

Last reported at 2015-Mar-01 16:27 UTC. Time now 2015-Mar-03 00:38 UTC.
Position N 37°27' W 125°32'.

Length 200 m; beam 32.3 m.

Type: Cargo ship. MMSI: 355234000.

Date/timePositionNaut miles runAvg speedWind from/ knotsBaromVisibWave heightAir tempDewpointWater temp
2015-Mar-01 16:27N 37°27' W 125°32'4515.3
2015-Mar-01 13:32N 37°27' W 124°35'3115.5
2015-Mar-01 11:33N 37°27' W 123°57'2215.3
2015-Mar-01 10:05N 37°27' W 123°28'815.7
2015-Mar-01 09:33N 37°30' W 123°18'1515.4
2015-Mar-01 08:33N 37°36' W 123°00'1413.8
2015-Mar-01 07:33N 37°43' W 122°46'1313.2
2015-Mar-01 06:34N 37°49' W 122°31'1212.2
2015-Mar-01 05:33N 37°60' W 122°25'1010.5
2015-Mar-01 04:33N 38°04' W 122°13'4 0.4
2015-Feb-28 18:23N 38°02' W 122°08'0 0.0
2015-Feb-28 11:29N 38°02' W 122°08'0 0.0
2015-Feb-28 10:23N 38°02' W 122°08'0 0.0
2015-Feb-28 09:11N 38°02' W 122°08'0 0.0
2015-Feb-28 03:05N 38°02' W 122°08'0 0.1
2015-Feb-28 02:33N 38°02' W 122°08'10 9.9
2015-Feb-28 01:33N 38°03' W 122°21'1111.1
2015-Feb-28 00:33N 37°52' W 122°25'1414.0
2015-Feb-27 23:33N 37°44' W 122°40'1010.1
2015-Feb-27 22:33N 37°38' W 122°50'1110.6
2015-Feb-27 21:33N 37°33' W 123°02'1111.0
2015-Feb-27 20:33N 37°30' W 123°15'5 4.7
2015-Feb-27 19:30N 37°32' W 123°21'2 2.3
2015-Feb-27 18:33N 37°34' W 123°22'2 2.1
2015-Feb-27 17:33N 37°36' W 123°23'2 2.0
2015-Feb-27 16:27N 37°38' W 123°24'2 1.9
2015-Feb-27 15:33N 37°39' W 123°25'2 1.7
2015-Feb-27 14:33N 37°41' W 123°26'2 1.8
2015-Feb-27 13:33N 37°43' W 123°26'2 2.2
2015-Feb-27 12:33N 37°45' W 123°26'2 2.2
2015-Feb-27 11:33N 37°43' W 123°25'8 7.8
2015-Feb-27 10:30N 37°36' W 123°19'910.0
2015-Feb-27 09:33N 37°28' W 123°12'9 8.8
2015-Feb-27 08:33N 37°21' W 123°06'6 5.9
2015-Feb-27 07:30N 37°16' W 123°01'23 6.8
2015-Feb-27 04:09N 36°57' W 122°45'812.3
2015-Feb-27 03:29N 36°50' W 122°40'1312.2
2015-Feb-27 02:27N 36°38' W 122°36'1112.7
2015-Feb-27 01:33N 36°27' W 122°32'1312.7
2015-Feb-27 00:33N 36°14' W 122°28'1313.1
2015-Feb-26 23:34N 36°02' W 122°24'1313.2
2015-Feb-26 22:33N 35°49' W 122°20'1413.6
2015-Feb-26 21:33N 35°37' W 122°12'1413.7
2015-Feb-26 20:33N 35°26' W 122°02'1413.7
2015-Feb-26 19:31N 35°15' W 121°52'1714.7
2015-Feb-26 18:23N 35°02' W 121°39'1315.3
2015-Feb-26 17:33N 34°52' W 121°29'1615.3
2015-Feb-26 16:31N 34°39' W 121°17'1515.1
2015-Feb-26 15:33N 34°29' W 121°05'1816.0
2015-Feb-26 14:25N 34°24' W 120°43'1616.2
2015-Feb-26 13:28N 34°20' W 120°25'1916.7
2015-Feb-26 12:19N 34°15' W 120°03'1317.2
2015-Feb-26 11:33N 34°12' W 119°48'1717.2
2015-Feb-26 10:33N 34°07' W 119°28'1817.5
2015-Feb-26 09:33N 34°01' W 119°08'1111.5
2015-Feb-26 08:33N 33°55' W 118°56'10 9.7
2015-Feb-26 07:33N 33°50' W 118°46'10 9.7
2015-Feb-26 06:33N 33°45' W 118°36'1010.2
2015-Feb-26 05:33N 33°40' W 118°25'10 9.6
2015-Feb-26 04:33N 33°39' W 118°14'7 6.7
2015-Feb-26 03:33N 33°45' W 118°13'1 1.0
2015-Feb-26 02:32N 33°46' W 118°13'0 0.0
2015-Feb-26 01:32N 33°46' W 118°13'0 0.0
2015-Feb-26 00:32N 33°46' W 118°13'0 0.0
2015-Feb-25 23:32N 33°46' W 118°13'0 0.0
2015-Feb-25 22:32N 33°46' W 118°13'0 0.0
2015-Feb-25 21:32N 33°46' W 118°13'0 0.0
2015-Feb-25 20:32N 33°46' W 118°13'0 0.0
2015-Feb-25 19:29N 33°46' W 118°13'0 0.0
2015-Feb-25 18:32N 33°46' W 118°13'0 0.0
2015-Feb-25 17:32N 33°46' W 118°13'0 0.0
2015-Feb-25 16:26N 33°46' W 118°13'0 0.0
2015-Feb-25 15:32N 33°46' W 118°13'0 0.2
2015-Feb-25 14:33N 33°46' W 118°13'6 5.5
2015-Feb-25 13:30N 33°41' W 118°11'5 5.0
2015-Feb-25 12:33N 33°36' W 118°10'7 6.6
2015-Feb-25 11:33N 33°30' W 118°07'6 6.4
2015-Feb-25 10:33N 33°24' W 118°05'7 6.9
2015-Feb-25 09:33N 33°17' W 118°02'7 7.3
2015-Feb-25 08:33N 33°10' W 118°00'7 7.0
2015-Feb-25 07:33N 33°03' W 118°00'1010.2
2015-Feb-25 06:33N 32°53' W 118°00'1615.6
2015-Feb-25 05:33N 32°38' W 118°03'1716.7
2015-Feb-25 04:33N 32°30' W 118°21'1716.7
2015-Feb-25 03:33N 32°24' W 118°39'1716.9
2015-Feb-25 02:33N 32°18' W 118°57'1716.6
2015-Feb-25 01:33N 32°13' W 119°16'5116.7
2015-Feb-24 22:29N 32°03' W 120°16'  

Dump ship's entire track history